Time;durP1;ratioP1;P1;durP2;ratioP2;P2;SDS_P1;SDS_P2;PMS_P1;PMS_P2;Temp;Humidity;BMP_temperature;BMP_pressure;BME280_temperature;BME280_humidity;BME280_pressure;Samples;Min_cycle;Max_cycle;Signal;HPM_P1;HPM_P2
2023/08/25 00:00:28;;;;;;;9.60;7.13;;;;;;;19.20;100.00;98003.97;4172366;28;20118;-73
2023/08/25 00:02:28;;;;;;;6.88;6.18;;;;;;;19.20;100.00;98010.38;4171830;28;20075;-73
2023/08/25 00:04:28;;;;;;;8.77;6.78;;;;;;;19.20;100.00;98006.78;4171917;28;20039;-73
2023/08/25 00:06:29;;;;;;;7.80;7.00;;;;;;;19.21;100.00;98014.72;4172037;28;20033;-73
2023/08/25 00:08:29;;;;;;;7.82;6.35;;;;;;;19.20;100.00;98026.41;4172551;28;20045;-73
2023/08/25 00:10:29;;;;;;;8.27;6.80;;;;;;;19.20;100.00;98015.97;4174541;28;20045;-73
2023/08/25 00:12:30;;;;;;;8.95;6.32;;;;;;;19.16;100.00;98018.09;4171794;28;20033;-73
2023/08/25 00:14:30;;;;;;;7.70;6.47;;;;;;;19.14;100.00;98016.97;4175075;28;20037;-73
2023/08/25 00:16:30;;;;;;;9.85;7.32;;;;;;;19.08;100.00;98025.91;4175550;28;20251;-73
2023/08/25 00:18:31;;;;;;;7.95;6.68;;;;;;;19.06;100.00;98030.41;4175269;28;20127;-73
2023/08/25 00:20:31;;;;;;;9.02;6.60;;;;;;;19.06;100.00;98022.00;4175292;28;20095;-73
2023/08/25 00:22:31;;;;;;;8.20;6.88;;;;;;;19.00;100.00;98016.16;4174049;28;20132;-72
2023/08/25 00:24:35;;;;;;;7.32;6.32;;;;;;;19.02;100.00;98018.50;4175114;28;20029;-73
2023/08/25 00:26:37;;;;;;;10.45;6.38;;;;;;;19.00;100.00;98027.38;4174897;28;20037;-73
2023/08/25 00:28:37;;;;;;;9.80;6.72;;;;;;;19.01;100.00;98039.34;4174523;28;20071;-73
2023/08/25 00:30:37;;;;;;;7.15;6.35;;;;;;;18.99;100.00;98031.41;4175512;28;20047;-72
2023/08/25 00:32:38;;;;;;;6.80;6.15;;;;;;;19.01;100.00;98028.16;4174186;28;20096;-72
2023/08/25 00:34:38;;;;;;;8.70;6.57;;;;;;;18.97;100.00;98022.66;4174970;28;20044;-73
2023/08/25 00:36:39;;;;;;;6.70;6.10;;;;;;;18.94;100.00;98028.34;4175037;28;20052;-73
2023/08/25 00:38:39;;;;;;;8.10;6.05;;;;;;;18.89;100.00;98026.91;4174753;28;20143;-73
2023/08/25 00:40:39;;;;;;;10.40;6.30;;;;;;;18.85;100.00;98031.03;4173389;28;20085;-73
2023/08/25 00:42:40;;;;;;;10.43;6.00;;;;;;;18.79;100.00;98028.00;4174386;28;20413;-72
2023/08/25 00:44:40;;;;;;;7.00;6.10;;;;;;;18.77;100.00;98024.84;4174853;28;20041;-73
2023/08/25 00:46:40;;;;;;;7.63;6.10;;;;;;;18.75;100.00;98024.50;4175632;28;20048;-73
2023/08/25 00:48:41;;;;;;;7.57;5.90;;;;;;;18.72;100.00;98025.41;4174388;28;20075;-73
2023/08/25 00:50:42;;;;;;;9.43;6.30;;;;;;;18.71;100.00;98015.41;4174745;28;20493;-73
2023/08/25 00:52:42;;;;;;;8.10;5.80;;;;;;;18.72;100.00;98012.16;4173830;28;20402;-73
2023/08/25 00:54:44;;;;;;;8.77;6.15;;;;;;;18.77;100.00;97999.63;4173369;28;20045;-73
2023/08/25 00:56:47;;;;;;;6.10;4.97;;;;;;;18.87;100.00;97992.94;4174191;28;20488;-73
2023/08/25 00:58:48;;;;;;;6.15;5.30;;;;;;;18.97;100.00;97982.63;4174375;28;20245;-73
2023/08/25 01:00:48;;;;;;;6.10;4.65;;;;;;;19.08;100.00;97992.28;4174232;28;20493;-73
2023/08/25 01:02:49;;;;;;;6.15;5.22;;;;;;;19.20;100.00;97981.53;4173434;28;20497;-73
2023/08/25 01:04:50;;;;;;;8.60;5.10;;;;;;;19.32;100.00;97984.31;4174591;28;20161;-73
2023/08/25 01:06:50;;;;;;;6.82;4.50;;;;;;;19.48;100.00;97982.66;4174275;28;20114;-73
2023/08/25 01:08:51;;;;;;;8.15;4.72;;;;;;;19.55;100.00;97980.41;4174655;28;20045;-73
2023/08/25 01:11:31;;;;;;;6.32;5.13;;;;;;;19.61;100.00;97975.81;4174636;28;20397;-73
2023/08/25 01:13:42;;;;;;;8.63;4.32;;;;;;;19.73;100.00;97985.44;4151814;28;20144;-73
2023/08/25 01:15:46;;;;;;;12.00;5.00;;;;;;;19.80;100.00;97976.03;4173671;28;20037;-72
2023/08/25 01:17:57;;;;;;;6.10;4.10;;;;;;;19.98;100.00;97972.59;4173867;28;20061;-72
2023/08/25 01:20:01;;;;;;;7.78;4.20;;;;;;;20.06;100.00;97971.91;4173414;28;20504;-72
2023/08/25 01:22:06;;;;;;;7.13;4.70;;;;;;;20.13;100.00;97973.69;4173627;28;20053;-72
2023/08/25 01:24:21;;;;;;;5.65;4.40;;;;;;;20.16;100.00;97962.31;4173652;28;20025;-73
2023/08/25 01:26:22;;;;;;;6.00;4.30;;;;;;;20.19;100.00;97958.63;4174605;28;20041;-73
2023/08/25 01:28:25;;;;;;;4.43;3.90;;;;;;;20.18;100.00;97965.44;4174537;28;20040;-73
2023/08/25 01:30:27;;;;;;;7.85;4.55;;;;;;;20.18;100.00;97965.44;4173348;28;20061;-73
2023/08/25 01:32:27;;;;;;;5.78;4.80;;;;;;;20.16;100.00;97955.91;4173714;28;20111;-73
2023/08/25 01:34:27;;;;;;;5.97;4.00;;;;;;;20.13;100.00;97971.66;4171647;28;20262;-73
2023/08/25 01:36:45;;;;;;;4.95;3.92;;;;;;;20.12;100.00;97981.31;4174004;28;20098;-73
2023/08/25 01:38:54;;;;;;;5.15;3.85;;;;;;;20.10;100.00;97972.53;4173875;28;20190;-73
2023/08/25 01:41:15;;;;;;;4.72;4.07;;;;;;;20.10;100.00;97971.75;4173938;28;20044;-73
2023/08/25 01:43:18;;;;;;;5.82;4.47;;;;;;;20.09;100.00;97958.97;4173148;28;20091;-73
2023/08/25 01:45:20;;;;;;;5.82;4.32;;;;;;;20.07;100.00;97959.44;4173821;28;20405;-73
2023/08/25 01:47:24;;;;;;;7.93;4.25;;;;;;;20.12;100.00;97960.88;4173423;28;20057;-72
2023/08/25 01:49:27;;;;;;;5.03;4.00;;;;;;;20.10;100.00;97952.88;4159699;28;20635;-73
2023/08/25 01:51:28;;;;;;;6.55;4.05;;;;;;;20.10;100.00;97941.66;4172444;28;20095;-73
2023/08/25 01:53:30;;;;;;;5.87;4.33;;;;;;;20.11;100.00;97939.66;4173690;28;20044;-73
2023/08/25 01:55:30;;;;;;;6.80;4.63;;;;;;;20.08;100.00;97943.38;4173194;28;20041;-73
2023/08/25 01:57:30;;;;;;;7.13;4.88;;;;;;;20.06;100.00;97943.81;4173800;28;20055;-73
2023/08/25 01:59:31;;;;;;;7.38;4.95;;;;;;;20.06;100.00;97943.03;4173923;28;20167;-73
2023/08/25 02:01:31;;;;;;;9.32;5.25;;;;;;;20.09;100.00;97947.72;4174178;28;20080;-73
2023/08/25 02:03:32;;;;;;;6.15;4.53;;;;;;;20.09;100.00;97942.13;4162443;28;20046;-73
2023/08/25 02:05:32;;;;;;;8.85;4.80;;;;;;;20.11;100.00;97951.69;4172959;28;20088;-73
2023/08/25 02:07:32;;;;;;;7.85;5.20;;;;;;;20.15;100.00;97949.50;4173741;28;20139;-72
2023/08/25 02:09:33;;;;;;;10.32;5.82;;;;;;;20.16;100.00;97945.47;4173688;28;20065;-73
2023/08/25 02:11:33;;;;;;;5.15;4.65;;;;;;;20.18;100.00;97936.56;4174229;28;20124;-73
2023/08/25 02:13:34;;;;;;;7.13;4.82;;;;;;;20.16;100.00;97939.06;4173213;28;20449;-73
2023/08/25 02:15:35;;;;;;;9.27;4.93;;;;;;;20.12;100.00;97942.00;4173296;28;20037;-73
2023/08/25 02:17:35;;;;;;;7.07;4.93;;;;;;;20.08;100.00;97949.75;4173524;28;20052;-73
2023/08/25 02:19:35;;;;;;;7.75;4.90;;;;;;;20.02;100.00;97943.16;4173679;28;20073;-73
2023/08/25 02:21:35;;;;;;;7.72;5.15;;;;;;;19.97;100.00;97946.56;4170989;28;20048;-73
2023/08/25 02:23:36;;;;;;;8.57;5.07;;;;;;;19.91;100.00;97949.13;4172906;28;20476;-73
2023/08/25 02:25:36;;;;;;;9.35;5.15;;;;;;;19.79;100.00;97947.16;4173191;28;20215;-73
2023/08/25 02:27:37;;;;;;;7.25;4.68;;;;;;;19.71;100.00;97956.28;4173468;28;20087;-72
2023/08/25 02:29:37;;;;;;;6.40;5.00;;;;;;;19.55;100.00;97949.53;4173484;28;20047;-72
2023/08/25 02:31:38;;;;;;;6.35;4.68;;;;;;;19.44;100.00;97937.84;4172811;28;20037;-73
2023/08/25 02:33:38;;;;;;;5.28;4.78;;;;;;;19.35;100.00;97937.75;4172523;28;20045;-73
2023/08/25 02:35:38;;;;;;;7.63;4.90;;;;;;;19.28;100.00;97941.59;4173387;28;20045;-73
2023/08/25 02:37:57;;;;;;;5.20;4.70;;;;;;;19.19;100.00;97940.69;4171473;28;20036;-73
2023/08/25 02:39:57;;;;;;;6.85;4.53;;;;;;;19.11;100.00;97940.13;4173299;28;20805;-73
2023/08/25 02:41:58;;;;;;;7.57;5.10;;;;;;;19.01;100.00;97944.03;4172263;28;20417;-73
2023/08/25 02:43:59;;;;;;;7.30;4.47;;;;;;;18.94;100.00;97936.63;4171893;28;20665;-73
2023/08/25 02:45:59;;;;;;;7.80;4.53;;;;;;;18.90;100.00;97930.38;4173040;28;20045;-73
2023/08/25 02:48:00;;;;;;;5.20;4.70;;;;;;;18.91;100.00;97928.34;4172679;28;20052;-73
2023/08/25 02:50:02;;;;;;;5.70;4.82;;;;;;;18.79;100.00;97922.28;4172650;28;20198;-73
2023/08/25 02:52:04;;;;;;;6.65;4.53;;;;;;;18.74;100.00;97920.03;4172755;28;20057;-73
2023/08/25 02:54:04;;;;;;;7.20;5.68;;;;;;;18.69;100.00;97911.38;4172560;28;20041;-73
2023/08/25 02:56:05;;;;;;;6.55;4.82;;;;;;;18.68;100.00;97921.81;4205119;28;20032;-73
2023/08/25 02:58:05;;;;;;;8.02;5.07;;;;;;;18.65;100.00;97919.91;4172945;28;20048;-73
2023/08/25 03:00:08;;;;;;;5.05;4.28;;;;;;;18.62;100.00;97914.38;4172440;28;20382;-73
2023/08/25 03:02:09;;;;;;;6.70;4.85;;;;;;;18.60;100.00;97920.41;4172474;28;20037;-73
2023/08/25 03:04:09;;;;;;;8.60;5.40;;;;;;;18.51;100.00;97906.28;4172045;28;20526;-73
2023/08/25 03:06:09;;;;;;;7.60;5.03;;;;;;;18.46;100.00;97910.44;4172892;28;20377;-73
2023/08/25 03:08:15;;;;;;;6.72;5.10;;;;;;;18.40;100.00;97901.00;4172837;28;20629;-73
2023/08/25 03:10:15;;;;;;;6.40;4.63;;;;;;;18.41;100.00;97905.38;4172915;28;20105;-73
2023/08/25 03:12:15;;;;;;;10.65;5.90;;;;;;;18.38;100.00;97906.28;4172434;28;20040;-73
2023/08/25 03:14:16;;;;;;;7.10;5.72;;;;;;;18.30;100.00;97913.31;4172095;28;20447;-73
2023/08/25 03:16:16;;;;;;;7.03;5.70;;;;;;;18.33;100.00;97917.22;4172720;28;20343;-73
2023/08/25 03:18:16;;;;;;;10.32;6.05;;;;;;;18.28;100.00;97924.13;4172115;28;20039;-73
2023/08/25 03:20:17;;;;;;;6.45;5.50;;;;;;;18.23;100.00;97919.88;4172830;28;20064;-73
2023/08/25 03:22:17;;;;;;;8.25;5.85;;;;;;;18.15;100.00;97918.50;4172130;28;20037;-73
2023/08/25 03:24:17;;;;;;;6.45;5.80;;;;;;;18.09;100.00;97911.88;4171186;28;20051;-73
2023/08/25 03:26:18;;;;;;;7.18;5.70;;;;;;;18.04;100.00;97906.03;4172505;28;20143;-73
2023/08/25 03:28:18;;;;;;;10.02;5.57;;;;;;;17.96;100.00;97905.44;4172017;28;20884;-73
2023/08/25 03:30:19;;;;;;;7.28;5.70;;;;;;;17.91;100.00;97901.16;4172300;28;20124;-73
2023/08/25 03:32:20;;;;;;;12.88;5.90;;;;;;;17.87;100.00;97897.69;4172215;28;20420;-73
2023/08/25 03:34:20;;;;;;;9.73;5.80;;;;;;;17.83;100.00;97901.81;4171792;28;20025;-73
2023/08/25 03:36:20;;;;;;;7.18;5.45;;;;;;;17.77;100.00;97904.34;4172779;28;20063;-73
2023/08/25 03:38:21;;;;;;;9.98;6.10;;;;;;;17.74;100.00;97901.66;4172298;28;20044;-73
2023/08/25 03:40:21;;;;;;;13.25;6.65;;;;;;;17.73;100.00;97902.88;4170679;28;20124;-73
2023/08/25 03:42:21;;;;;;;6.50;5.70;;;;;;;17.68;100.00;97896.53;4171663;28;20505;-73
2023/08/25 03:44:22;;;;;;;8.38;6.75;;;;;;;17.71;100.00;97892.13;4174155;28;20408;-73
2023/08/25 03:46:22;;;;;;;10.15;6.10;;;;;;;17.79;100.00;97893.50;4176633;28;20041;-73
2023/08/25 03:48:23;;;;;;;9.00;5.75;;;;;;;17.79;100.00;97895.50;4175307;28;20041;-73
2023/08/25 03:50:24;;;;;;;9.73;6.05;;;;;;;17.81;100.00;97887.47;4175201;28;20769;-73
2023/08/25 03:52:24;;;;;;;7.65;6.45;;;;;;;17.81;100.00;97888.25;4171583;28;20174;-73
2023/08/25 03:54:27;;;;;;;7.65;5.60;;;;;;;17.78;100.00;97903.09;4173677;28;20489;-73
2023/08/25 03:56:28;;;;;;;7.13;6.40;;;;;;;17.72;100.00;97902.09;4172779;28;20127;-73
2023/08/25 03:58:28;;;;;;;7.07;5.90;;;;;;;17.66;100.00;97890.59;4175113;28;20562;-72
2023/08/25 04:00:28;;;;;;;7.88;6.78;;;;;;;17.62;100.00;97898.28;4174974;28;20443;-73
2023/08/25 04:02:29;;;;;;;11.10;8.30;;;;;;;17.57;100.00;97895.25;4174533;28;20081;-73
2023/08/25 04:04:31;;;;;;;11.48;6.10;;;;;;;17.55;100.00;97895.69;4172406;28;20267;-73
2023/08/25 04:06:32;;;;;;;9.52;6.90;;;;;;;17.52;100.00;97895.78;4174044;28;20053;-73
2023/08/25 04:08:32;;;;;;;7.82;6.40;;;;;;;17.49;100.00;97900.25;4174468;28;20116;-73
2023/08/25 04:10:33;;;;;;;11.23;6.28;;;;;;;17.44;100.00;97897.19;4174636;28;20132;-73
2023/08/25 04:12:33;;;;;;;9.57;6.50;;;;;;;17.36;100.00;97902.94;4172908;28;20056;-73
2023/08/25 04:14:34;;;;;;;12.07;6.20;;;;;;;17.34;100.00;97899.81;4173488;28;20037;-73
2023/08/25 04:16:34;;;;;;;7.40;6.35;;;;;;;17.35;100.00;97884.59;4170947;28;20122;-73
2023/08/25 04:18:34;;;;;;;8.50;5.97;;;;;;;17.40;100.00;97892.47;4173889;28;20185;-73
2023/08/25 04:20:35;;;;;;;7.35;6.15;;;;;;;17.45;100.00;97882.75;4174690;28;20048;-73
2023/08/25 04:22:35;;;;;;;11.40;6.13;;;;;;;17.51;100.00;97885.81;4172043;28;20051;-73
2023/08/25 04:24:36;;;;;;;14.75;7.32;;;;;;;17.50;100.00;97895.44;4174469;28;20491;-73
2023/08/25 04:26:36;;;;;;;12.02;7.90;;;;;;;17.46;100.00;97900.31;4174398;28;20222;-73
2023/08/25 04:28:36;;;;;;;13.70;8.30;;;;;;;17.44;100.00;97894.38;4174291;28;20087;-73
2023/08/25 04:30:37;;;;;;;12.07;8.05;;;;;;;17.39;100.00;97896.50;4174810;28;20033;-73
2023/08/25 04:32:37;;;;;;;13.45;8.43;;;;;;;17.35;100.00;97887.41;4173728;28;20045;-73
2023/08/25 04:34:37;;;;;;;13.32;8.45;;;;;;;17.31;100.00;97889.50;4174950;28;20041;-73
2023/08/25 04:36:39;;;;;;;13.73;8.65;;;;;;;17.30;100.00;97892.75;4174385;28;20045;-73
2023/08/25 04:38:40;;;;;;;15.32;8.75;;;;;;;17.24;100.00;97891.69;4171903;28;20060;-73
2023/08/25 04:40:40;;;;;;;15.98;8.77;;;;;;;17.23;100.00;97882.53;4173304;28;20067;-73
2023/08/25 04:42:41;;;;;;;14.75;8.38;;;;;;;17.23;100.00;97882.53;4173003;28;20045;-73
2023/08/25 04:44:41;;;;;;;16.88;9.23;;;;;;;17.22;100.00;97886.56;4174467;28;20140;-73
2023/08/25 04:46:42;;;;;;;14.75;8.30;;;;;;;17.21;100.00;97879.38;4174350;28;20068;-73
2023/08/25 04:48:45;;;;;;;13.57;8.10;;;;;;;17.29;100.00;97877.97;4173975;28;20095;-73
2023/08/25 04:50:46;;;;;;;12.27;7.88;;;;;;;17.38;100.00;97882.97;4173577;28;20491;-73
2023/08/25 04:52:46;;;;;;;14.75;8.23;;;;;;;17.44;100.00;97888.78;4163020;28;20298;-73
2023/08/25 04:54:47;;;;;;;13.35;8.15;;;;;;;17.47;100.00;97885.94;4173192;28;20532;-73
2023/08/25 04:56:47;;;;;;;16.30;8.30;;;;;;;17.56;100.00;97899.28;4138323;28;20045;-73
2023/08/25 04:58:48;;;;;;;16.60;8.02;;;;;;;17.59;100.00;97893.59;4170114;28;20076;-73
2023/08/25 05:00:50;;;;;;;12.27;7.28;;;;;;;17.65;100.00;97879.88;4168450;28;20549;-73
2023/08/25 05:02:50;;;;;;;9.15;6.93;;;;;;;17.66;100.00;97887.81;4204085;28;20109;-73
2023/08/25 05:04:51;;;;;;;10.73;7.22;;;;;;;17.71;100.00;97886.53;4174339;28;20064;-73
2023/08/25 05:06:51;;;;;;;13.30;7.78;;;;;;;17.77;100.00;97881.97;4173644;28;20071;-73
2023/08/25 05:08:54;;;;;;;13.48;7.28;;;;;;;17.80;100.00;97872.69;4173999;28;20049;-73
2023/08/25 05:10:54;;;;;;;12.27;7.03;;;;;;;17.83;100.00;97866.22;4174451;28;20208;-73
2023/08/25 05:12:54;;;;;;;9.98;7.05;;;;;;;17.91;100.00;97881.56;4173000;28;20056;-73
2023/08/25 05:14:55;;;;;;;11.63;8.35;;;;;;;17.94;100.00;97865.91;4161730;28;20046;-73
2023/08/25 05:16:55;;;;;;;13.10;7.50;;;;;;;17.99;100.00;97873.00;4173885;28;20044;-73
2023/08/25 05:18:55;;;;;;;9.50;7.07;;;;;;;18.03;100.00;97876.47;4172704;28;20048;-73
2023/08/25 05:21:00;;;;;;;12.35;7.10;;;;;;;18.05;100.00;97872.00;4174395;28;20063;-73
2023/08/25 05:23:00;;;;;;;9.05;7.25;;;;;;;18.11;100.00;97872.22;4168883;28;20052;-73
2023/08/25 05:25:00;;;;;;;15.05;7.43;;;;;;;18.16;100.00;97880.09;4173091;28;20068;-73
2023/08/25 05:27:01;;;;;;;8.43;7.40;;;;;;;18.20;100.00;97878.78;4173473;28;20037;-73
2023/08/25 05:29:01;;;;;;;10.05;7.28;;;;;;;18.26;100.00;97881.81;4161518;28;20045;-73
2023/08/25 05:31:02;;;;;;;10.18;7.55;;;;;;;18.31;100.00;97880.47;4173430;28;20044;-73
2023/08/25 05:33:03;;;;;;;8.52;7.50;;;;;;;18.38;100.00;97874.69;4173450;28;20120;-73
2023/08/25 05:35:04;;;;;;;9.20;7.30;;;;;;;18.41;100.00;97880.16;4166514;28;20262;-73
2023/08/25 05:37:05;;;;;;;9.60;7.85;;;;;;;18.49;100.00;97877.94;4170624;28;20072;-73
2023/08/25 05:39:06;;;;;;;10.73;8.40;;;;;;;18.57;100.00;97870.91;4168035;28;20071;-73
2023/08/25 05:41:07;;;;;;;13.77;9.23;;;;;;;18.64;100.00;97883.91;4172268;28;20132;-73
2023/08/25 05:43:07;;;;;;;12.60;8.85;;;;;;;18.68;100.00;97884.59;4171334;28;20045;-74
2023/08/25 05:45:08;;;;;;;9.32;7.82;;;;;;;18.72;100.00;97890.91;4172951;28;20033;-74
2023/08/25 05:47:09;;;;;;;9.70;7.80;;;;;;;18.77;100.00;97895.94;4173345;28;20033;-73
2023/08/25 05:49:09;;;;;;;9.57;7.40;;;;;;;18.78;100.00;97875.06;4173318;28;20071;-73
2023/08/25 05:51:09;;;;;;;10.68;8.70;;;;;;;18.83;100.00;97877.31;4169593;28;20048;-73
2023/08/25 05:53:10;;;;;;;12.93;9.57;;;;;;;18.94;100.00;97888.19;4171704;28;20053;-74
2023/08/25 05:55:13;;;;;;;12.23;9.77;;;;;;;19.02;100.00;97889.53;4172918;28;20037;-73
2023/08/25 05:57:14;;;;;;;11.45;9.30;;;;;;;19.07;100.00;97892.59;4169627;28;20049;-73
2023/08/25 05:59:14;;;;;;;14.07;10.38;;;;;;;19.13;100.00;97890.00;4172776;28;20108;-73
2023/08/25 06:01:15;;;;;;;11.43;8.57;;;;;;;19.17;100.00;97887.84;4173085;28;20052;-73
2023/08/25 06:03:16;;;;;;;11.85;8.07;;;;;;;19.24;100.00;97881.25;4170943;28;20277;-73
2023/08/25 06:05:16;;;;;;;9.52;7.63;;;;;;;19.29;100.00;97881.47;4168368;28;20355;-73
2023/08/25 06:07:17;;;;;;;17.75;9.50;;;;;;;19.35;100.00;97890.06;4169424;28;20079;-74
2023/08/25 06:09:17;;;;;;;11.45;8.23;;;;;;;19.42;100.00;97883.44;4167473;28;20044;-73
2023/08/25 06:11:18;;;;;;;11.80;8.57;;;;;;;19.47;100.00;97888.50;4171572;28;20048;-73
2023/08/25 06:13:19;;;;;;;11.98;9.38;;;;;;;19.54;100.00;97879.84;4167065;28;20048;-73
2023/08/25 06:15:19;;;;;;;10.35;9.25;;;;;;;19.61;100.00;97896.44;4171522;28;20539;-73
2023/08/25 06:17:19;;;;;;;12.85;8.85;;;;;;;19.70;100.00;97893.75;4172992;28;20460;-73
2023/08/25 06:19:20;;;;;;;10.60;7.60;;;;;;;19.74;100.00;97888.78;4169162;28;20082;-73
2023/08/25 06:21:20;;;;;;;9.63;8.02;;;;;;;19.81;100.00;97893.38;4194942;28;20407;-73
2023/08/25 06:23:21;;;;;;;15.90;9.65;;;;;;;19.89;100.00;97894.69;4164324;28;20562;-73
2023/08/25 06:25:22;;;;;;;10.48;9.02;;;;;;;19.97;100.00;97895.22;4172024;28;20055;-73
2023/08/25 06:27:22;;;;;;;14.50;9.75;;;;;;;20.07;100.00;97900.47;4172159;28;20083;-73
2023/08/25 06:29:23;;;;;;;10.10;9.10;;;;;;;20.19;100.00;97894.00;4172747;28;20057;-73
2023/08/25 06:31:23;;;;;;;12.40;9.07;;;;;;;20.30;100.00;97898.44;4172806;28;20098;-74
2023/08/25 06:33:25;;;;;;;9.18;8.27;;;;;;;20.43;100.00;97899.16;4168371;28;20513;-73
2023/08/25 06:35:26;;;;;;;9.38;8.15;;;;;;;20.58;100.00;97896.63;4168179;28;20053;-73
2023/08/25 06:37:26;;;;;;;8.75;7.78;;;;;;;20.71;100.00;97894.53;4164113;28;20243;-74
2023/08/25 06:39:27;;;;;;;10.85;7.55;;;;;;;20.82;100.00;97888.47;4166003;28;20037;-74
2023/08/25 06:41:27;;;;;;;9.43;7.50;;;;;;;20.84;100.00;97892.38;4169430;28;20064;-73
2023/08/25 06:43:27;;;;;;;8.70;6.60;;;;;;;20.84;100.00;97883.94;4169654;28;20049;-73
2023/08/25 06:45:28;;;;;;;7.57;6.85;;;;;;;20.85;100.00;97884.72;4172876;28;20049;-73
2023/08/25 06:47:30;;;;;;;7.53;6.82;;;;;;;20.88;100.00;97889.44;4196731;28;20051;-73
2023/08/25 06:49:30;;;;;;;7.10;6.47;;;;;;;20.94;100.00;97887.63;4171625;28;20045;-74
2023/08/25 06:51:31;;;;;;;8.68;6.70;;;;;;;21.06;100.00;97892.34;4172322;28;20280;-73
2023/08/25 06:53:31;;;;;;;9.88;8.15;;;;;;;21.19;100.00;97887.41;4162522;28;20460;-73
2023/08/25 06:55:36;;;;;;;9.55;7.43;;;;;;;21.33;100.00;97890.88;4171379;28;20106;-73
2023/08/25 06:57:36;;;;;;;8.65;7.18;;;;;;;21.43;100.00;97873.59;4171557;28;20513;-73
2023/08/25 06:59:36;;;;;;;7.30;6.53;;;;;;;21.53;100.00;97872.34;4173248;28;20127;-73
2023/08/25 07:01:37;;;;;;;7.25;6.32;;;;;;;21.61;100.00;97864.38;4172872;28;20056;-76
2023/08/25 07:03:37;;;;;;;9.77;7.05;;;;;;;21.76;100.00;97870.16;4171484;28;20049;-73
2023/08/25 07:05:38;;;;;;;8.73;6.88;;;;;;;21.90;100.00;97880.03;4172928;28;20045;-74
2023/08/25 07:07:38;;;;;;;8.35;6.85;;;;;;;21.97;100.00;97880.50;4172654;28;20045;-74
2023/08/25 07:09:39;;;;;;;10.68;6.53;;;;;;;22.06;100.00;97891.00;4172705;28;20811;-74
2023/08/25 07:11:39;;;;;;;10.07;6.97;;;;;;;22.11;100.00;97891.19;4172860;28;20166;-74
2023/08/25 07:13:39;;;;;;;9.60;6.90;;;;;;;22.19;100.00;97882.44;4171470;28;20044;-74
2023/08/25 07:15:40;;;;;;;7.43;6.30;;;;;;;22.23;100.00;97878.19;4172375;28;20052;-74
2023/08/25 07:17:40;;;;;;;8.52;6.38;;;;;;;22.25;100.00;97881.31;4172729;28;20114;-74
2023/08/25 07:19:40;;;;;;;6.68;6.00;;;;;;;22.35;100.00;97891.34;4172488;28;20045;-74
2023/08/25 07:21:41;;;;;;;8.50;5.80;;;;;;;22.37;100.00;97891.63;4172412;28;20033;-74
2023/08/25 07:23:42;;;;;;;6.53;5.90;;;;;;;22.37;100.00;97885.22;4171632;28;20048;-74
2023/08/25 07:25:43;;;;;;;6.70;6.05;;;;;;;22.38;100.00;97886.78;4172564;28;20051;-74
2023/08/25 07:27:43;;;;;;;7.13;6.35;;;;;;;22.34;100.00;97889.78;4172796;28;20136;-74
2023/08/25 07:29:44;;;;;;;10.52;6.43;;;;;;;22.33;100.00;97893.81;4171370;28;20041;-74
2023/08/25 07:31:44;;;;;;;7.93;6.13;;;;;;;22.28;100.00;97896.50;4172407;28;20037;-74
2023/08/25 07:33:45;;;;;;;6.40;5.68;;;;;;;22.27;100.00;97898.53;4171933;28;20055;-73
2023/08/25 07:35:46;;;;;;;8.85;7.05;;;;;;;22.28;100.00;97896.50;4172528;28;20037;-74
2023/08/25 07:37:47;;;;;;;7.05;6.25;;;;;;;22.27;100.00;97889.31;4170902;28;20136;-74
2023/08/25 07:39:51;;;;;;;7.25;6.45;;;;;;;22.25;100.00;97889.75;4172368;28;20132;-73
2023/08/25 07:41:52;;;;;;;7.65;6.63;;;;;;;22.25;100.00;97891.78;4159404;28;20049;-74
2023/08/25 07:43:52;;;;;;;9.02;6.68;;;;;;;22.26;100.00;97896.16;4168140;28;20490;-74
2023/08/25 07:45:54;;;;;;;8.98;7.10;;;;;;;22.27;100.00;97895.72;4170290;28;20036;-74
2023/08/25 07:47:55;;;;;;;6.88;6.20;;;;;;;22.24;100.00;97910.72;4172253;28;20045;-74
2023/08/25 07:49:55;;;;;;;9.43;6.47;;;;;;;22.22;100.00;97920.91;4172675;28;20069;-74
2023/08/25 07:51:56;;;;;;;7.20;6.18;;;;;;;22.20;100.00;97946.75;4171245;28;20291;-74
2023/08/25 07:53:56;;;;;;;8.25;6.78;;;;;;;22.21;100.00;97951.13;4171104;28;20047;-74
2023/08/25 07:55:57;;;;;;;7.03;5.90;;;;;;;22.14;100.00;97924.03;4172443;28;20479;-74
2023/08/25 07:57:57;;;;;;;8.68;6.47;;;;;;;22.08;100.00;97923.09;4172027;28;20041;-74
2023/08/25 07:59:58;;;;;;;9.85;6.30;;;;;;;22.02;100.00;97924.97;4171677;28;20531;-74
2023/08/25 08:01:58;;;;;;;6.38;5.78;;;;;;;21.99;100.00;97927.91;4172079;28;20330;-74
2023/08/25 08:03:59;;;;;;;6.65;5.95;;;;;;;21.97;100.00;97934.03;4170336;28;20183;-74
2023/08/25 08:05:59;;;;;;;7.30;6.60;;;;;;;21.94;100.00;97934.97;4172232;28;20045;-74
2023/08/25 08:08:00;;;;;;;8.38;6.80;;;;;;;21.87;100.00;97918.38;4172249;28;20044;-74
2023/08/25 08:10:01;;;;;;;10.23;6.60;;;;;;;21.82;100.00;97942.28;4172081;28;20053;-74
2023/08/25 08:12:01;;;;;;;9.15;6.25;;;;;;;21.69;100.00;97926.81;4170678;28;20044;-74
2023/08/25 08:14:02;;;;;;;9.75;6.25;;;;;;;21.63;100.00;97921.00;4171328;28;20025;-74
2023/08/25 08:16:03;;;;;;;8.15;6.45;;;;;;;21.61;100.00;97914.28;4172184;28;20521;-74
2023/08/25 08:18:04;;;;;;;7.28;5.45;;;;;;;21.56;100.00;97912.84;4171996;28;20075;-74
2023/08/25 08:20:07;;;;;;;8.55;6.60;;;;;;;21.49;100.00;97902.66;4171585;28;20451;-74
2023/08/25 08:22:07;;;;;;;8.95;6.50;;;;;;;21.46;100.00;97897.19;4171349;28;20021;-74
2023/08/25 08:24:09;;;;;;;7.00;6.05;;;;;;;21.46;100.00;97885.94;4171220;28;20051;-74
2023/08/25 08:26:09;;;;;;;6.87;6.17;;;;;;;21.43;100.00;97869.97;4171681;28;20116;-74
2023/08/25 08:28:09;;;;;;;8.13;6.30;;;;;;;21.36;100.00;97859.03;4171674;28;20191;-74
2023/08/25 08:30:10;;;;;;;8.20;6.82;;;;;;;21.35;100.00;97857.44;4172112;28;20043;-74
2023/08/25 08:32:12;;;;;;;8.60;6.20;;;;;;;21.31;100.00;97841.50;4174775;28;20025;-74
2023/08/25 08:34:12;;;;;;;7.68;6.10;;;;;;;21.31;100.00;97841.50;4174283;28;20031;-74
2023/08/25 08:36:15;;;;;;;7.18;6.00;;;;;;;21.28;100.00;97859.31;4175003;28;20112;-74
2023/08/25 08:38:15;;;;;;;8.85;7.07;;;;;;;21.23;100.00;97859.88;4174229;28;20409;-74
2023/08/25 08:40:16;;;;;;;7.25;6.25;;;;;;;21.21;100.00;97847.53;4174691;28;20033;-74
2023/08/25 08:42:17;;;;;;;6.05;5.45;;;;;;;21.19;100.00;97816.28;4175040;28;20476;-74
2023/08/25 08:44:19;;;;;;;8.50;5.82;;;;;;;21.19;100.00;97816.28;4174708;28;20519;-74
2023/08/25 08:46:20;;;;;;;7.17;6.30;;;;;;;21.20;100.00;97827.06;4174726;28;20496;-74
2023/08/25 08:48:21;;;;;;;7.72;6.90;;;;;;;21.20;100.00;97857.22;4175121;28;20040;-74
2023/08/25 08:50:22;;;;;;;8.90;6.20;;;;;;;21.25;100.00;97865.03;4174652;28;20044;-74
2023/08/25 08:52:22;;;;;;;8.13;6.78;;;;;;;21.23;100.00;97865.50;4174044;28;20415;-74
2023/08/25 08:54:27;;;;;;;7.65;6.30;;;;;;;21.20;100.00;97868.50;4174363;28;20045;-74
2023/08/25 08:56:27;;;;;;;8.32;6.53;;;;;;;21.20;100.00;97894.59;4174792;28;20099;-74
2023/08/25 08:58:28;;;;;;;8.07;6.13;;;;;;;21.21;100.00;97913.03;4174890;28;20100;-74
2023/08/25 09:00:30;;;;;;;7.38;6.60;;;;;;;21.24;100.00;97912.09;4174843;28;20036;-74
2023/08/25 09:02:32;;;;;;;;;;;;;;;21.25;100.00;97919.28;4174645;28;20148;-74
2023/08/25 09:04:35;;;;;;;7.45;5.90;;;;;;;21.24;100.00;97920.53;4174284;28;19928;-74
2023/08/25 09:06:37;;;;;;;8.27;6.30;;;;;;;21.32;100.00;97912.63;4174856;28;20040;-74
2023/08/25 09:08:38;;;;;;;8.40;6.95;;;;;;;21.29;100.00;97903.09;4174175;28;20069;-74
2023/08/25 09:10:38;;;;;;;7.60;5.80;;;;;;;21.40;100.00;97899.81;4174052;28;20068;-74
2023/08/25 09:12:39;;;;;;;6.70;5.80;;;;;;;21.46;100.00;97911.25;4173358;28;20049;-74
2023/08/25 09:14:39;;;;;;;5.85;5.20;;;;;;;21.47;100.00;97921.25;4174782;28;20549;-74
2023/08/25 09:16:40;;;;;;;6.78;5.45;;;;;;;21.51;100.00;97950.03;4174693;28;20419;-74
2023/08/25 09:18:41;;;;;;;6.68;5.28;;;;;;;21.52;100.00;97951.63;4174258;28;20033;-74
2023/08/25 09:20:41;;;;;;;6.88;5.55;;;;;;;21.56;100.00;97955.84;4175095;28;20052;-74
2023/08/25 09:22:55;;;;;;;5.82;5.22;;;;;;;21.66;100.00;97976.34;4173067;28;20048;-74